Time;durP1;ratioP1;P1;durP2;ratioP2;P2;SDS_P1;SDS_P2;PMS_P1;PMS_P2;Temp;Humidity;BMP_temperature;BMP_pressure;BME280_temperature;BME280_humidity;BME280_pressure;Samples;Min_cycle;Max_cycle;Signal;HPM_P1;HPM_P2
2022/06/25 00:01:20;;;;;;;2.75;2.42;;;;;;;17.01;85.45;100660.53;5041108;28;20032;-84
2022/06/25 00:03:46;;;;;;;4.15;2.72;;;;;;;16.98;85.70;100651.88;5038114;28;20095;-84
2022/06/25 00:06:12;;;;;;;3.75;2.97;;;;;;;16.97;85.52;100656.41;5044044;28;20068;-84
2022/06/25 00:08:39;;;;;;;4.70;3.20;;;;;;;16.99;85.70;100667.03;5042845;28;20509;-84
2022/06/25 00:11:07;;;;;;;5.40;3.97;;;;;;;16.92;85.46;100672.03;5044690;28;20029;-84
2022/06/25 00:13:34;;;;;;;4.03;3.63;;;;;;;16.90;85.44;100672.16;5041310;28;20129;-84
2022/06/25 00:16:00;;;;;;;4.93;3.78;;;;;;;16.88;85.39;100676.78;5044077;28;20122;-83
2022/06/25 00:18:25;;;;;;;4.68;3.80;;;;;;;16.90;85.86;100679.38;5042430;28;20045;-84
2022/06/25 00:20:51;;;;;;;3.40;3.10;;;;;;;16.86;85.21;100673.38;5043272;28;20140;-84
2022/06/25 00:23:16;;;;;;;3.70;3.40;;;;;;;16.86;84.96;100675.22;5044451;28;20094;-84
2022/06/25 00:25:42;;;;;;;5.00;3.60;;;;;;;16.83;84.91;100676.31;5044069;28;20021;-84
2022/06/25 00:28:07;;;;;;;4.93;3.88;;;;;;;16.82;84.89;100679.13;5045294;28;20275;-84
2022/06/25 00:30:33;;;;;;;3.72;3.42;;;;;;;16.80;85.27;100675.69;5044221;28;20123;-84
2022/06/25 00:32:59;;;;;;;4.82;3.88;;;;;;;16.79;85.30;100680.22;5043765;28;20036;-84
2022/06/25 00:35:25;;;;;;;3.60;3.30;;;;;;;16.81;85.51;100678.28;5045898;28;20959;-84
2022/06/25 00:37:51;;;;;;;3.90;3.50;;;;;;;16.75;85.15;100678.75;5046714;28;20040;-84
2022/06/25 00:40:16;;;;;;;4.05;3.38;;;;;;;16.73;84.73;100678.03;5046236;28;20033;-83
2022/06/25 00:42:45;;;;;;;4.20;3.47;;;;;;;16.72;84.53;100687.03;5047359;28;20054;-84
2022/06/25 00:45:12;;;;;;;5.15;3.53;;;;;;;16.72;84.97;100680.78;5047780;28;20040;-84
2022/06/25 00:47:37;;;;;;;4.43;3.55;;;;;;;16.68;84.47;100680.19;5052042;28;20025;-85
2022/06/25 00:50:03;;;;;;;4.93;3.30;;;;;;;16.69;84.25;100684.59;5050350;28;20047;-84
2022/06/25 00:52:32;;;;;;;3.40;3.10;;;;;;;16.66;84.55;100674.94;5049387;28;20124;-84
2022/06/25 00:55:05;;;;;;;4.85;3.75;;;;;;;16.66;84.32;100688.34;5047490;28;20054;-84
2022/06/25 00:57:33;;;;;;;5.60;3.53;;;;;;;16.66;84.32;100687.50;5047037;28;20032;-85
2022/06/25 01:00:06;;;;;;;4.35;3.63;;;;;;;16.65;84.71;100686.66;5045096;28;20045;-84
2022/06/25 01:02:31;;;;;;;5.25;3.75;;;;;;;16.60;84.30;100688.00;5046334;28;20521;-84
2022/06/25 01:04:57;;;;;;;4.28;3.60;;;;;;;16.59;84.34;100689.81;5043831;28;20394;-85
2022/06/25 01:07:22;;;;;;;4.03;3.30;;;;;;;16.61;83.83;100695.09;5043533;28;20029;-84
2022/06/25 01:09:49;;;;;;;6.13;3.30;;;;;;;16.58;84.04;100690.78;5042022;28;20119;-84
2022/06/25 01:12:15;;;;;;;5.50;3.20;;;;;;;16.57;83.37;100701.66;5044381;28;20025;-84
2022/06/25 01:14:40;;;;;;;3.63;3.28;;;;;;;16.54;84.62;100696.53;5041421;28;20021;-85
2022/06/25 01:17:07;;;;;;;4.50;3.47;;;;;;;16.52;84.15;100698.50;5042275;28;20033;-84
2022/06/25 01:19:33;;;;;;;4.80;3.55;;;;;;;16.47;84.59;100706.91;5039445;28;20029;-84
2022/06/25 01:22:00;;;;;;;6.00;3.92;;;;;;;16.43;84.73;100706.28;5042549;28;20405;-85
2022/06/25 01:24:25;;;;;;;5.07;3.80;;;;;;;16.46;84.81;100713.25;5045885;28;20021;-84
2022/06/25 01:26:50;;;;;;;5.45;4.82;;;;;;;16.42;85.42;100720.69;5045451;28;20491;-84
2022/06/25 01:29:16;;;;;;;4.47;3.47;;;;;;;16.40;85.85;100717.25;5045177;28;20036;-84
2022/06/25 01:31:41;;;;;;;5.72;3.65;;;;;;;16.39;85.50;100720.94;5045530;28;20056;-84
2022/06/25 01:34:06;;;;;;;7.15;4.10;;;;;;;16.33;85.54;100725.91;5043115;28;20031;-84
2022/06/25 01:36:31;;;;;;;5.15;3.72;;;;;;;16.30;85.20;100729.72;5046272;28;20029;-84
2022/06/25 01:38:57;;;;;;;4.97;4.22;;;;;;;16.30;85.86;100735.06;5043512;28;20454;-84
2022/06/25 01:41:22;;;;;;;6.07;4.30;;;;;;;16.26;85.67;100724.66;5046344;28;20041;-84
2022/06/25 01:43:47;;;;;;;4.22;3.83;;;;;;;16.25;86.19;100729.19;5044634;28;20029;-84
2022/06/25 01:46:14;;;;;;;4.88;3.97;;;;;;;16.22;86.03;100736.59;5045934;28;20027;-84
2022/06/25 01:48:40;;;;;;;5.88;4.30;;;;;;;16.13;86.04;100727.44;5044947;28;20028;-83
2022/06/25 01:51:05;;;;;;;6.47;4.47;;;;;;;16.08;85.72;100722.41;5044321;28;20025;-83
2022/06/25 01:53:31;;;;;;;4.40;4.00;;;;;;;16.12;86.10;100736.47;5044165;28;20024;-83
2022/06/25 01:55:57;;;;;;;6.97;4.10;;;;;;;16.11;85.60;100740.13;5045872;28;20041;-83
2022/06/25 01:58:22;;;;;;;4.90;4.40;;;;;;;16.06;86.94;100743.16;5044711;28;20454;-83
2022/06/25 02:00:48;;;;;;;6.20;4.43;;;;;;;16.04;86.55;100746.91;5046385;28;20036;-83
2022/06/25 02:03:14;;;;;;;5.22;4.43;;;;;;;16.03;86.75;100755.94;5046264;28;20371;-83
2022/06/25 02:05:58;;;;;;;6.28;4.57;;;;;;;16.01;86.53;100747.16;5045031;28;20021;-83
2022/06/25 02:08:34;;;;;;;;;;;;;;;16.02;85.07;100754.25;5044470;28;20099;-83
2022/06/25 02:11:01;;;;;;;6.78;4.65;;;;;;;15.97;85.72;100759.97;5045273;28;20004;-83
2022/06/25 02:13:27;;;;;;;5.22;4.72;;;;;;;15.94;86.14;100763.72;5046158;28;20532;-83
2022/06/25 02:15:53;;;;;;;8.05;5.10;;;;;;;15.90;86.29;100762.25;5044411;28;20102;-83
2022/06/25 02:18:19;;;;;;;6.80;5.15;;;;;;;15.90;86.17;100756.88;5043693;28;20037;-84
2022/06/25 02:20:44;;;;;;;5.03;4.40;;;;;;;15.84;86.53;100762.72;5044629;28;20160;-84
2022/06/25 02:23:11;;;;;;;6.47;4.32;;;;;;;15.80;87.02;100761.22;5046062;28;20025;-83
2022/06/25 02:25:36;;;;;;;5.75;3.53;;;;;;;15.83;85.73;100771.69;5043536;28;20029;-84
2022/06/25 02:28:02;;;;;;;5.57;3.95;;;;;;;15.79;86.55;100766.69;5043554;28;20032;-84
2022/06/25 02:30:27;;;;;;;4.95;3.80;;;;;;;15.79;86.61;100777.41;5042766;28;20115;-84
2022/06/25 02:32:52;;;;;;;4.75;3.50;;;;;;;15.77;86.92;100782.91;5045379;28;20021;-84
2022/06/25 02:35:18;;;;;;;4.35;3.65;;;;;;;15.73;86.90;100781.41;5042988;28;20450;-84
2022/06/25 02:37:43;;;;;;;7.57;4.50;;;;;;;15.68;87.10;100776.41;5043579;28;20036;-83
2022/06/25 02:40:09;;;;;;;5.30;4.70;;;;;;;15.70;87.44;100778.94;5041764;28;20536;-83
2022/06/25 02:42:39;;;;;;;6.95;4.63;;;;;;;15.64;87.39;100782.94;5045280;28;20091;-84
2022/06/25 02:45:06;;;;;;;5.25;4.30;;;;;;;15.61;87.35;100783.13;5046085;28;20036;-83
2022/06/25 02:47:31;;;;;;;5.97;4.05;;;;;;;15.63;87.51;100791.94;5044891;28;20075;-83
2022/06/25 02:49:57;;;;;;;6.32;4.28;;;;;;;15.61;87.28;100799.22;5045037;28;21181;-84
2022/06/25 02:52:22;;;;;;;6.68;4.00;;;;;;;15.59;87.59;100797.63;5047986;28;20051;-83
2022/06/25 02:54:48;;;;;;;5.68;4.38;;;;;;;15.58;87.46;100799.44;5047810;28;20109;-84
2022/06/25 02:59:57;;;;;;;5.55;3.72;;;;;;;15.56;87.95;100811.28;5043229;28;20130;-84
2022/06/25 03:02:22;;;;;;;6.57;3.70;;;;;;;15.53;88.00;100806.13;5042402;28;20032;-84
2022/06/25 03:04:48;;;;;;;7.00;4.00;;;;;;;15.50;88.38;100806.34;5044088;28;20036;-84
2022/06/25 03:07:13;;;;;;;7.13;3.65;;;;;;;15.51;88.76;100811.59;5043080;28;20021;-83
2022/06/25 03:09:39;;;;;;;5.38;4.30;;;;;;;15.49;88.40;100808.16;5043696;28;20166;-84
2022/06/25 03:12:04;;;;;;;4.25;3.45;;;;;;;15.41;88.56;100797.97;5043365;28;20528;-84
2022/06/25 03:14:30;;;;;;;4.35;3.90;;;;;;;15.44;88.65;100804.97;5043190;28;20104;-84
2022/06/25 03:16:55;;;;;;;5.53;4.25;;;;;;;15.42;89.26;100801.50;5039899;28;20683;-84
2022/06/25 03:19:21;;;;;;;4.55;3.78;;;;;;;15.43;89.89;100811.31;5045055;28;20490;-84
2022/06/25 03:21:46;;;;;;;6.65;4.70;;;;;;;15.43;89.98;100809.47;5045209;28;20041;-84
2022/06/25 03:24:11;;;;;;;9.45;7.65;;;;;;;15.40;89.42;100808.84;5044732;28;20047;-83
2022/06/25 03:26:37;;;;;;;8.70;7.40;;;;;;;15.41;89.70;100808.72;5044148;28;20033;-84
2022/06/25 03:29:03;;;;;;;8.68;7.88;;;;;;;15.43;90.30;100809.47;5041301;28;20021;-84
2022/06/25 03:31:28;;;;;;;5.97;5.45;;;;;;;15.42;89.71;100813.13;5044640;28;20068;-85
2022/06/25 03:33:54;;;;;;;6.50;4.90;;;;;;;15.45;90.34;100820.06;5044508;28;20020;-85
2022/06/25 03:36:19;;;;;;;5.53;4.40;;;;;;;15.47;89.77;100823.53;5032205;28;20036;-84
2022/06/25 03:38:45;;;;;;;5.03;4.35;;;;;;;15.50;89.90;100817.06;5041821;28;20032;-84
2022/06/25 03:43:54;;;;;;;4.97;4.45;;;;;;;15.63;90.19;100816.09;5043119;28;20040;-84
2022/06/25 03:46:19;;;;;;;6.75;4.40;;;;;;;15.66;89.59;100815.03;5041863;28;20029;-85
2022/06/25 03:48:44;;;;;;;6.03;4.07;;;;;;;15.73;89.90;100820.81;5032067;28;20470;-84
2022/06/25 03:51:10;;;;;;;4.88;4.47;;;;;;;15.80;90.02;100811.31;5043120;28;20035;-85
2022/06/25 03:53:35;;;;;;;6.47;4.13;;;;;;;15.83;89.16;100817.31;5043812;28;20028;-84
2022/06/25 03:56:00;;;;;;;5.18;4.18;;;;;;;15.96;89.29;100819.13;5042459;28;20033;-84
2022/06/25 03:58:26;;;;;;;5.70;4.32;;;;;;;15.98;88.90;100817.19;5038622;28;20120;-84
2022/06/25 04:00:51;;;;;;;4.72;4.32;;;;;;;16.02;88.35;100816.84;5037858;28;20063;-84
2022/06/25 04:03:17;;;;;;;5.22;4.13;;;;;;;16.06;88.20;100820.16;5044525;28;20107;-84
2022/06/25 04:05:42;;;;;;;6.10;4.72;;;;;;;16.11;88.96;100815.31;5045188;28;20037;-85
2022/06/25 04:08:08;;;;;;;5.20;4.35;;;;;;;16.11;88.22;100812.63;5042103;28;20025;-84
2022/06/25 04:10:34;;;;;;;7.03;4.88;;;;;;;16.13;88.77;100822.25;5045983;28;20029;-85
2022/06/25 04:12:59;;;;;;;5.10;4.60;;;;;;;16.14;88.20;100818.63;5046026;28;20071;-84
2022/06/25 04:15:24;;;;;;;8.82;5.18;;;;;;;16.11;88.55;100823.34;5046439;28;20028;-84
2022/06/25 04:17:50;;;;;;;5.60;5.05;;;;;;;16.07;88.84;100817.34;5046360;28;20068;-84
2022/06/25 04:20:15;;;;;;;6.70;4.82;;;;;;;16.09;89.04;100828.84;5048112;28;20047;-84
2022/06/25 04:22:41;;;;;;;6.03;4.43;;;;;;;16.08;88.67;100818.22;5046961;28;20103;-84
2022/06/25 04:25:07;;;;;;;4.78;4.38;;;;;;;16.14;88.96;100821.31;5044179;28;20420;-84
2022/06/25 04:30:16;;;;;;;4.82;3.67;;;;;;;16.19;88.41;100818.28;5039169;28;20541;-84
2022/06/25 04:32:41;;;;;;;3.95;3.55;;;;;;;16.34;88.21;100833.22;5040385;28;20072;-84
2022/06/25 04:35:07;;;;;;;4.80;3.67;;;;;;;16.41;87.67;100828.25;5042849;28;20425;-84
2022/06/25 04:37:32;;;;;;;5.47;3.88;;;;;;;16.49;87.94;100839.28;5035027;28;20540;-83
2022/06/25 04:39:57;;;;;;;5.72;3.75;;;;;;;16.59;87.40;100840.28;5035955;28;20223;-84
2022/06/25 04:42:23;;;;;;;7.38;4.43;;;;;;;16.68;87.41;100844.13;5034641;28;20052;-84
2022/06/25 04:44:48;;;;;;;6.25;4.28;;;;;;;16.82;86.63;100849.31;5033846;28;20497;-84
2022/06/25 04:47:13;;;;;;;6.00;3.80;;;;;;;16.95;86.28;100845.69;5037532;28;20048;-84
2022/06/25 04:49:39;;;;;;;5.80;3.90;;;;;;;17.11;85.01;100848.91;5036618;28;20040;-84
2022/06/25 04:52:04;;;;;;;4.75;3.70;;;;;;;17.22;84.98;100851.59;5041447;28;20120;-83
2022/06/25 04:54:30;;;;;;;6.78;4.40;;;;;;;17.33;84.73;100850.75;5033639;28;20032;-85
2022/06/25 04:56:55;;;;;;;5.45;3.80;;;;;;;17.46;84.43;100858.72;5033177;28;20059;-85
2022/06/25 04:59:21;;;;;;;5.93;3.90;;;;;;;17.62;83.54;100859.19;5040918;28;20028;-85
2022/06/25 05:01:46;;;;;;;7.60;4.15;;;;;;;17.64;82.19;100858.09;5037614;28;20029;-85
2022/06/25 05:04:12;;;;;;;5.80;4.28;;;;;;;17.67;82.06;100863.22;5042174;28;20033;-85
2022/06/25 05:06:37;;;;;;;5.80;3.70;;;;;;;17.64;82.02;100859.91;5046711;28;20043;-85
2022/06/25 05:09:02;;;;;;;4.93;3.42;;;;;;;17.57;81.64;100862.25;5048247;28;20033;-84
2022/06/25 05:11:28;;;;;;;6.20;4.10;;;;;;;17.42;83.01;100858.94;5049442;28;20446;-84
2022/06/25 05:13:53;;;;;;;6.57;4.32;;;;;;;17.33;83.15;100864.19;5049608;28;20029;-85
2022/06/25 05:16:19;;;;;;;5.97;3.72;;;;;;;17.26;82.92;100871.03;5048133;28;20025;-84
2022/06/25 05:18:44;;;;;;;5.15;3.78;;;;;;;17.19;82.91;100859.91;5044782;28;20502;-85
2022/06/25 05:21:10;;;;;;;5.15;3.75;;;;;;;17.20;83.41;100864.31;5047874;28;20462;-85
2022/06/25 05:23:35;;;;;;;8.02;3.78;;;;;;;17.15;82.73;100871.88;5042926;28;20021;-85
2022/06/25 05:26:02;;;;;;;6.13;3.83;;;;;;;17.15;83.06;100875.44;5041796;28;20609;-85
2022/06/25 05:28:27;;;;;;;8.02;4.22;;;;;;;17.16;83.46;100881.66;5046483;28;20033;-84
2022/06/25 05:30:52;;;;;;;6.07;3.97;;;;;;;17.27;83.34;100879.00;5043989;28;20489;-85
2022/06/25 05:33:18;;;;;;;6.22;4.63;;;;;;;17.37;83.17;100879.97;5046763;28;20055;-84
2022/06/25 05:35:43;;;;;;;5.45;3.70;;;;;;;17.41;82.04;100884.13;5042217;28;20025;-84
2022/06/25 05:38:08;;;;;;;6.10;3.78;;;;;;;17.55;81.77;100887.56;5045643;28;20081;-84
2022/06/25 05:40:35;;;;;;;6.03;4.13;;;;;;;17.70;81.58;100888.19;5046811;28;20033;-84
2022/06/25 05:43:00;;;;;;;6.88;4.30;;;;;;;17.89;81.87;100885.75;5047188;28;20036;-85
2022/06/25 05:45:26;;;;;;;5.50;3.88;;;;;;;18.11;79.71;100888.44;5047043;28;20352;-84
2022/06/25 05:47:51;;;;;;;5.45;3.50;;;;;;;18.29;78.58;100888.75;5045432;28;20052;-85
2022/06/25 05:50:17;;;;;;;4.35;3.90;;;;;;;18.46;78.34;100891.88;5046416;28;20037;-84
2022/06/25 05:52:42;;;;;;;5.53;3.65;;;;;;;18.58;76.41;100898.94;5046759;28;20017;-85
2022/06/25 05:55:08;;;;;;;5.75;3.20;;;;;;;18.66;77.52;100896.47;5046533;28;20066;-85
2022/06/25 05:57:34;;;;;;;5.63;3.70;;;;;;;18.75;75.99;100895.72;5045825;28;20383;-84
2022/06/25 06:00:00;;;;;;;3.40;3.10;;;;;;;18.88;76.02;100906.31;5044116;28;20238;-85
2022/06/25 06:02:26;;;;;;;3.90;3.33;;;;;;;18.92;75.70;100902.38;5044192;28;20138;-85
2022/06/25 06:04:52;;;;;;;3.85;2.88;;;;;;;19.09;75.50;100900.94;5045839;28;20029;-85
2022/06/25 06:07:18;;;;;;;4.05;3.33;;;;;;;19.30;73.66;100900.94;5043466;28;20021;-86
2022/06/25 06:09:43;;;;;;;6.40;3.10;;;;;;;19.46;72.95;100904.00;5046364;28;20033;-85
2022/06/25 06:12:08;;;;;;;4.18;2.85;;;;;;;19.61;72.33;100909.97;5047755;28;20052;-85
2022/06/25 06:14:34;;;;;;;6.88;3.10;;;;;;;19.75;71.46;100919.53;5040904;28;20035;-85
2022/06/25 06:16:59;;;;;;;4.60;2.85;;;;;;;19.86;71.25;100916.75;5032171;28;20052;-85
2022/06/25 06:19:24;;;;;;;7.00;3.60;;;;;;;20.12;71.06;100923.38;5043752;28;20123;-86
2022/06/25 06:21:50;;;;;;;4.75;3.50;;;;;;;20.29;69.50;100927.25;5041809;28;20086;-86
2022/06/25 06:24:15;;;;;;;7.38;3.47;;;;;;;20.32;69.01;100926.13;5048288;28;20033;-83
2022/06/25 06:26:40;;;;;;;5.50;3.03;;;;;;;20.44;69.12;100929.53;5047114;28;20104;-85
2022/06/25 06:29:06;;;;;;;4.60;3.17;;;;;;;20.71;68.83;100928.91;5047218;28;20041;-85
2022/06/25 06:31:31;;;;;;;4.93;3.03;;;;;;;20.83;66.50;100920.53;5044989;28;20017;-85
2022/06/25 06:33:57;;;;;;;8.20;2.90;;;;;;;21.10;66.96;100933.31;5048975;28;20178;-85
2022/06/25 06:36:22;;;;;;;3.40;2.45;;;;;;;21.32;65.80;100929.50;5044500;28;20071;-86
2022/06/25 06:38:47;;;;;;;5.22;2.60;;;;;;;21.24;64.13;100923.91;5044531;28;20130;-85
2022/06/25 06:41:13;;;;;;;8.32;2.83;;;;;;;21.13;64.86;100926.75;5045950;28;20041;-85
2022/06/25 06:43:39;;;;;;;4.03;2.10;;;;;;;21.03;65.10;100934.06;5045953;28;20033;-87
2022/06/25 06:46:04;;;;;;;4.78;2.20;;;;;;;20.90;64.02;100928.94;5045233;28;20040;-85
2022/06/25 06:48:30;;;;;;;6.60;2.40;;;;;;;20.75;64.63;100931.19;5045687;28;20401;-85
2022/06/25 06:50:55;;;;;;;4.03;2.53;;;;;;;20.46;65.00;100938.38;5044739;28;20072;-86
2022/06/25 06:53:21;;;;;;;4.60;2.33;;;;;;;20.32;66.90;100939.66;5047275;28;20493;-86
2022/06/25 06:55:46;;;;;;;3.20;2.30;;;;;;;20.20;66.78;100946.16;5041748;28;20024;-85
2022/06/25 06:58:12;;;;;;;5.28;2.33;;;;;;;20.00;67.32;100939.81;5044238;28;20064;-85
2022/06/25 07:00:37;;;;;;;5.00;2.50;;;;;;;19.82;67.42;100945.88;5047966;28;20093;-86
2022/06/25 07:03:02;;;;;;;3.40;2.25;;;;;;;19.66;68.80;100945.50;5046815;28;20025;-86
2022/06/25 07:05:28;;;;;;;6.30;3.03;;;;;;;19.58;69.13;100948.00;5043765;28;20479;-85
2022/06/25 07:07:53;;;;;;;4.95;2.60;;;;;;;19.67;70.42;100946.34;5042395;28;20096;-85
2022/06/25 07:10:20;;;;;;;5.43;2.53;;;;;;;19.84;69.29;100938.47;5044113;28;20028;-85
2022/06/25 07:12:46;;;;;;;5.15;2.38;;;;;;;20.14;69.19;100940.28;5042098;28;20123;-85
2022/06/25 07:15:11;;;;;;;5.15;2.17;;;;;;;20.50;66.43;100945.25;5045893;28;20557;-86
2022/06/25 07:17:37;;;;;;;3.90;2.78;;;;;;;20.82;66.83;100939.59;5044390;28;20021;-86
2022/06/25 07:20:02;;;;;;;5.32;2.45;;;;;;;21.07;64.15;100938.19;5037824;28;20400;-87
2022/06/25 07:22:27;;;;;;;5.60;2.40;;;;;;;21.23;64.10;100937.56;5048154;28;20501;-86
2022/06/25 07:24:52;;;;;;;2.97;2.17;;;;;;;21.61;64.74;100936.66;5045331;28;20032;-87
2022/06/25 07:27:18;;;;;;;2.95;1.95;;;;;;;21.88;61.70;100933.16;5047501;28;20394;-88
2022/06/25 07:29:44;;;;;;;3.92;2.10;;;;;;;21.85;60.91;100947.84;5049969;28;20184;-87
2022/06/25 07:32:10;;;;;;;4.75;1.92;;;;;;;21.96;61.20;100946.81;5050476;28;20107;-86
2022/06/25 07:34:35;;;;;;;3.92;2.00;;;;;;;21.83;61.15;100949.84;5041286;28;20025;-86
2022/06/25 07:37:01;;;;;;;3.03;2.00;;;;;;;21.60;62.19;100943.09;5049584;28;20040;-86
2022/06/25 07:39:26;;;;;;;3.20;2.05;;;;;;;21.50;62.06;100953.09;5049648;28;20033;-87
2022/06/25 07:41:51;;;;;;;3.70;2.45;;;;;;;21.31;62.83;100953.94;5060737;28;20105;-87
2022/06/25 07:44:17;;;;;;;3.30;1.83;;;;;;;21.15;63.16;100951.81;5063784;28;20021;-87
2022/06/25 07:46:42;;;;;;;5.93;1.92;;;;;;;21.46;63.20;100943.56;5063982;28;20025;-89
2022/06/25 07:49:09;;;;;;;3.90;2.17;;;;;;;21.70;61.86;100943.91;5067005;28;19997;-88
2022/06/25 07:54:36;;;;;;;4.13;1.80;;;;;;;22.55;60.12;100950.94;4992428;28;20026;-84
2022/06/25 07:57:01;;;;;;;1.70;1.60;;;;;;;22.60;58.33;100954.03;4985951;28;20043;-85
2022/06/25 07:59:26;;;;;;;2.90;1.73;;;;;;;22.68;58.02;100950.56;4987332;28;20166;-86
2022/06/25 08:01:52;;;;;;;2.40;1.55;;;;;;;22.79;59.12;100944.91;4988885;28;20050;-85
2022/06/25 08:04:17;;;;;;;1.65;1.40;;;;;;;22.72;58.32;100942.97;4990772;28;20192;-84
2022/06/25 08:06:43;;;;;;;2.63;1.60;;;;;;;22.57;58.93;100948.06;4988905;28;20033;-85
2022/06/25 08:09:09;;;;;;;2.78;1.50;;;;;;;22.31;58.90;100946.09;4985389;28;20035;-84
2022/06/25 08:11:35;;;;;;;3.78;1.80;;;;;;;22.24;59.86;100949.53;4983653;28;20165;-85
2022/06/25 08:14:00;;;;;;;2.58;1.48;;;;;;;22.09;59.79;100960.00;4983090;28;20126;-85
2022/06/25 08:16:26;;;;;;;4.40;1.85;;;;;;;21.72;59.50;100943.75;4978710;28;20046;-89
2022/06/25 08:18:52;;;;;;;3.10;1.63;;;;;;;21.39;61.18;100954.94;4981515;28;20046;-85
2022/06/25 08:21:17;;;;;;;2.97;2.33;;;;;;;21.22;61.61;100955.66;4982328;28;20520;-85
2022/06/25 08:23:43;;;;;;;2.38;1.98;;;;;;;21.06;62.43;100960.81;4981838;28;20044;-85
2022/06/25 08:26:08;;;;;;;4.95;1.80;;;;;;;20.91;63.62;100973.91;4980403;28;20616;-84
2022/06/25 08:28:34;;;;;;;5.00;1.90;;;;;;;20.76;63.47;100970.75;5011488;28;20041;-86
2022/06/25 08:30:59;;;;;;;5.20;2.30;;;;;;;21.02;62.47;100967.50;5044252;28;20033;-85
2022/06/25 08:33:25;;;;;;;3.92;2.22;;;;;;;21.67;62.61;100968.59;5043762;28;20039;-86
2022/06/25 08:35:50;;;;;;;5.65;2.20;;;;;;;23.05;59.02;100963.16;5043102;28;20033;-85
2022/06/25 08:38:16;;;;;;;6.03;2.13;;;;;;;24.40;55.54;100968.13;5044471;28;20037;-85
2022/06/25 08:40:42;;;;;;;3.67;1.88;;;;;;;24.57;54.01;100962.56;5042538;28;20494;-85
2022/06/25 08:43:07;;;;;;;2.75;1.90;;;;;;;23.93;54.85;100957.69;5045586;28;20028;-86
2022/06/25 08:45:33;;;;;;;4.10;1.83;;;;;;;23.35;56.88;100962.72;5035451;28;20259;-85
2022/06/25 08:48:01;;;;;;;2.88;1.88;;;;;;;23.03;55.99;100957.03;5041532;28;20029;-85
2022/06/25 08:50:27;;;;;;;3.90;2.63;;;;;;;23.32;57.34;100973.03;5043401;28;20090;-86
2022/06/25 08:52:54;;;;;;;2.22;1.92;;;;;;;23.25;57.74;100970.13;5042301;28;20037;-85
2022/06/25 08:55:31;;;;;;;3.30;2.08;;;;;;;23.14;57.02;100964.09;5039577;28;20021;-86
2022/06/25 08:57:57;;;;;;;4.18;2.05;;;;;;;22.96;56.78;100958.69;5043080;28;20037;-85
2022/06/25 09:00:23;;;;;;;3.70;2.13;;;;;;;23.39;57.11;100965.97;5044235;28;20028;-86
2022/06/25 09:02:49;;;;;;;2.40;1.92;;;;;;;24.99;53.58;100968.91;5041786;28;20033;-86
2022/06/25 09:05:14;;;;;;;3.30;1.98;;;;;;;25.71;49.46;100960.91;5042910;28;20100;-87
2022/06/25 09:07:52;;;;;;;3.10;1.73;;;;;;;25.54;50.93;100962.81;5043959;28;20104;-79
2022/06/25 09:10:21;;;;;;;4.47;1.80;;;;;;;24.88;51.35;100969.28;5044412;28;20036;-85
2022/06/25 09:12:52;;;;;;;1.98;1.60;;;;;;;24.11;52.37;100967.47;5043190;28;20102;-85
2022/06/25 09:15:22;;;;;;;2.92;1.88;;;;;;;23.41;54.21;100969.41;5041299;28;20033;-86
2022/06/25 09:17:52;;;;;;;4.72;1.73;;;;;;;22.94;56.44;100966.09;5041949;28;20040;-84
2022/06/25 09:20:17;;;;;;;3.55;2.55;;;;;;;;;;5044603;28;20021;-85
2022/06/25 09:22:57;;;;;;;3.22;1.80;;;;;;;22.65;57.07;100961.72;5043383;28;20021;-86
2022/06/25 09:25:28;;;;;;;2.97;1.65;;;;;;;22.56;57.43;100963.47;5043022;28;20033;-85
2022/06/25 09:27:56;;;;;;;2.42;1.77;;;;;;;22.75;57.08;100972.50;5042676;28;20029;-85
2022/06/25 09:30:22;;;;;;;6.03;2.00;;;;;;;23.24;57.15;100960.28;5043948;28;20029;-85
2022/06/25 09:32:54;;;;;;;4.90;2.10;;;;;;;24.67;54.87;100959.72;5043633;28;20075;-85
2022/06/25 09:35:35;;;;;;;3.90;1.90;;;;;;;26.44;50.38;100963.44;5042092;28;20115;-85
2022/06/25 09:38:09;;;;;;;2.35;1.48;;;;;;;26.32;48.00;100962.09;5043441;28;20037;-86
2022/06/25 09:40:35;;;;;;;3.83;1.70;;;;;;;25.63;49.39;100961.78;5039479;28;20564;-85
2022/06/25 09:43:17;;;;;;;3.25;1.50;;;;;;;24.95;51.32;100959.38;5045234;28;20040;-85
2022/06/25 09:45:44;;;;;;;3.35;1.67;;;;;;;24.46;51.00;100972.91;5045355;28;20033;-85
2022/06/25 09:48:19;;;;;;;3.45;1.50;;;;;;;24.40;52.62;100968.97;5048097;28;20017;-85
2022/06/25 09:51:04;;;;;;;1.42;1.13;;;;;;;24.44;52.08;100967.63;5046950;28;20079;-85
2022/06/25 09:53:29;;;;;;;2.33;1.55;;;;;;;24.51;51.48;100973.28;5045727;28;20649;-86
2022/06/25 09:55:55;;;;;;;3.47;1.50;;;;;;;25.28;51.40;100977.47;5046124;28;20032;-85
2022/06/25 09:58:22;;;;;;;4.05;1.52;;;;;;;26.31;47.39;100976.78;5047689;28;20037;-85
2022/06/25 10:00:47;;;;;;;1.60;1.30;;;;;;;27.04;47.42;100979.06;5047427;28;20053;-86
2022/06/25 10:03:13;;;;;;;2.78;1.30;;;;;;;27.35;45.32;100974.63;5044836;28;20121;-85
2022/06/25 10:05:41;;;;;;;2.35;1.40;;;;;;;28.03;43.74;100981.78;5044920;28;20021;-86
2022/06/25 10:08:10;;;;;;;1.35;1.15;;;;;;;27.65;42.14;100983.72;5047969;28;20074;-85
2022/06/25 10:10:42;;;;;;;2.83;1.30;;;;;;;26.67;44.95;100976.25;5047783;28;20495;-86
2022/06/25 10:13:08;;;;;;;3.92;1.40;;;;;;;26.18;46.15;100977.34;5042020;28;20025;-86
2022/06/25 10:15:34;;;;;;;3.15;1.00;;;;;;;25.62;46.84;100976.41;5042871;28;20097;-86
2022/06/25 10:18:03;;;;;;;2.00;1.40;;;;;;;25.94;46.54;100977.41;5046897;28;20402;-86
2022/06/25 10:20:29;;;;;;;1.60;1.30;;;;;;;28.05;42.85;100977.00;5046280;28;20033;-86
2022/06/25 10:22:55;;;;;;;1.50;1.40;;;;;;;29.24;38.88;100975.66;5043866;28;20227;-85
2022/06/25 10:25:23;;;;;;;2.53;1.50;;;;;;;29.28;39.98;100976.13;5045890;28;20457;-86
2022/06/25 10:27:50;;;;;;;2.95;1.40;;;;;;;28.73;39.56;100978.50;5044839;28;20021;-86
2022/06/25 10:30:45;;;;;;;2.78;1.60;;;;;;;28.48;41.83;100971.69;5046552;28;20137;-86
2022/06/25 10:33:12;;;;;;;2.25;1.10;;;;;;;29.46;39.28;100962.78;5043538;28;20071;-87
2022/06/25 10:35:39;;;;;;;2.03;1.00;;;;;;;31.16;37.76;100966.78;5042351;28;20025;-86
2022/06/25 10:38:08;;;;;;;2.75;1.15;;;;;;;33.24;33.52;100967.63;5047332;28;20073;-87
2022/06/25 10:40:44;;;;;;;2.13;1.20;;;;;;;34.19;31.79;100950.78;5045486;28;20489;-86
2022/06/25 10:43:34;;;;;;;1.48;1.10;;;;;;;35.54;32.75;100966.09;5046361;28;20090;-87
2022/06/25 10:45:59;;;;;;;1.10;0.80;;;;;;;37.10;25.99;100972.44;5046804;28;20041;-87
2022/06/25 10:48:29;;;;;;;1.48;0.85;;;;;;;35.04;26.99;100974.78;5047248;28;20547;-86
2022/06/25 10:50:55;;;;;;;1.90;0.90;;;;;;;32.66;30.71;100976.91;5046170;28;20060;-86
2022/06/25 10:53:23;;;;;;;2.63;0.80;;;;;;;31.37;34.01;100974.00;5046300;28;20052;-86
2022/06/25 10:55:48;;;;;;;1.02;0.80;;;;;;;33.14;30.37;100970.03;5043591;28;20029;-87
2022/06/25 10:58:15;;;;;;;1.37;0.80;;;;;;;34.28;29.62;100962.34;5048480;28;20028;-87
2022/06/25 11:00:50;;;;;;;1.73;1.10;;;;;;;34.67;31.42;100972.09;5051715;28;20282;-87
2022/06/25 11:03:17;;;;;;;2.58;1.00;;;;;;;35.92;28.71;100962.81;5052249;28;20037;-87
2022/06/25 11:05:45;;;;;;;1.60;0.90;;;;;;;37.20;26.41;100969.00;5051868;28;20029;-86
2022/06/25 11:08:11;;;;;;;3.38;1.00;;;;;;;38.39;24.41;100950.25;5049106;28;20060;-85
2022/06/25 11:10:39;;;;;;;1.75;0.75;;;;;;;38.10;23.40;100964.31;5049370;28;20047;-86
2022/06/25 11:13:04;;;;;;;1.73;0.90;;;;;;;37.55;24.48;100967.94;5057038;28;20238;-85
2022/06/25 11:15:45;;;;;;;0.70;0.70;;;;;;;38.40;25.74;100955.53;5066554;28;20024;-87
2022/06/25 11:18:12;;;;;;;1.27;0.90;;;;;;;38.49;23.25;100956.75;5068687;28;20067;-86
2022/06/25 11:20:38;;;;;;;1.33;0.82;;;;;;;38.43;23.86;100952.25;5070260;28;20040;-86
2022/06/25 11:23:04;;;;;;;1.95;0.90;;;;;;;38.79;23.67;100963.75;5068881;28;20411;-86
2022/06/25 11:28:48;;;;;;;1.60;1.00;;;;;;;35.55;26.09;100965.84;5062107;28;20044;-86
2022/06/25 11:31:17;;;;;;;1.30;0.90;;;;;;;36.17;26.56;100957.03;5063820;28;20029;-86
2022/06/25 11:33:43;;;;;;;2.08;0.80;;;;;;;37.90;23.79;100961.25;5063754;28;20021;-85
2022/06/25 11:36:10;;;;;;;1.02;0.80;;;;;;;38.42;23.89;100956.13;5066492;28;20029;-86
2022/06/25 11:38:39;;;;;;;0.70;0.70;;;;;;;38.12;23.51;100962.09;5047799;28;20033;-85